sensor_id;sensor_type;location;lat;lon;timestamp;P1;durP1;ratioP1;P2;durP2;ratioP2
31694;SDS011;18289;51.330;4.946;2022-08-20T00:00:24;12.88;;;9.75;;
31694;SDS011;18289;51.330;4.946;2022-08-20T00:02:52;13.45;;;10.50;;
31694;SDS011;18289;51.330;4.946;2022-08-20T00:05:31;9.20;;;7.30;;
31694;SDS011;18289;51.330;4.946;2022-08-20T00:08:02;12.90;;;9.88;;
31694;SDS011;18289;51.330;4.946;2022-08-20T00:10:30;11.48;;;10.00;;
31694;SDS011;18289;51.330;4.946;2022-08-20T00:12:57;13.77;;;9.57;;
31694;SDS011;18289;51.330;4.946;2022-08-20T00:15:25;12.30;;;10.25;;
31694;SDS011;18289;51.330;4.946;2022-08-20T00:17:53;14.00;;;10.73;;
31694;SDS011;18289;51.330;4.946;2022-08-20T00:20:20;15.85;;;10.85;;
31694;SDS011;18289;51.330;4.946;2022-08-20T00:25:15;13.55;;;10.60;;
31694;SDS011;18289;51.330;4.946;2022-08-20T00:27:41;19.25;;;10.75;;
31694;SDS011;18289;51.330;4.946;2022-08-20T00:30:09;18.83;;;11.70;;
31694;SDS011;18289;51.330;4.946;2022-08-20T00:32:47;15.98;;;11.40;;
31694;SDS011;18289;51.330;4.946;2022-08-20T00:35:16;13.25;;;10.82;;
31694;SDS011;18289;51.330;4.946;2022-08-20T00:37:44;20.60;;;12.98;;
31694;SDS011;18289;51.330;4.946;2022-08-20T00:40:11;14.75;;;12.23;;
31694;SDS011;18289;51.330;4.946;2022-08-20T00:42:42;15.60;;;12.43;;
31694;SDS011;18289;51.330;4.946;2022-08-20T00:45:10;20.17;;;13.57;;
31694;SDS011;18289;51.330;4.946;2022-08-20T00:47:37;17.00;;;13.30;;
31694;SDS011;18289;51.330;4.946;2022-08-20T00:50:10;19.13;;;12.85;;
31694;SDS011;18289;51.330;4.946;2022-08-20T00:52:40;20.77;;;12.73;;
31694;SDS011;18289;51.330;4.946;2022-08-20T00:55:08;22.35;;;14.82;;
31694;SDS011;18289;51.330;4.946;2022-08-20T00:57:40;23.35;;;15.15;;
31694;SDS011;18289;51.330;4.946;2022-08-20T01:00:25;22.13;;;14.63;;
31694;SDS011;18289;51.330;4.946;2022-08-20T01:02:54;20.40;;;13.82;;
31694;SDS011;18289;51.330;4.946;2022-08-20T01:05:21;20.42;;;15.35;;
31694;SDS011;18289;51.330;4.946;2022-08-20T01:07:48;21.55;;;14.38;;
31694;SDS011;18289;51.330;4.946;2022-08-20T01:10:18;23.00;;;14.02;;
31694;SDS011;18289;51.330;4.946;2022-08-20T01:12:48;18.33;;;13.85;;
31694;SDS011;18289;51.330;4.946;2022-08-20T01:15:16;22.65;;;15.23;;
31694;SDS011;18289;51.330;4.946;2022-08-20T01:17:47;22.00;;;16.15;;
31694;SDS011;18289;51.330;4.946;2022-08-20T01:20:25;25.42;;;17.00;;
31694;SDS011;18289;51.330;4.946;2022-08-20T01:22:57;25.88;;;17.50;;
31694;SDS011;18289;51.330;4.946;2022-08-20T01:28:44;26.38;;;18.02;;
31694;SDS011;18289;51.330;4.946;2022-08-20T01:31:18;20.50;;;15.77;;
31694;SDS011;18289;51.330;4.946;2022-08-20T01:33:47;25.10;;;15.95;;
31694;SDS011;18289;51.330;4.946;2022-08-20T01:36:14;24.50;;;15.65;;
31694;SDS011;18289;51.330;4.946;2022-08-20T01:38:42;23.63;;;15.52;;
31694;SDS011;18289;51.330;4.946;2022-08-20T01:43:49;21.48;;;13.65;;
31694;SDS011;18289;51.330;4.946;2022-08-20T01:46:25;20.30;;;13.52;;
31694;SDS011;18289;51.330;4.946;2022-08-20T01:48:53;20.10;;;13.55;;
31694;SDS011;18289;51.330;4.946;2022-08-20T01:51:23;21.15;;;13.73;;
31694;SDS011;18289;51.330;4.946;2022-08-20T01:53:52;20.17;;;13.45;;
31694;SDS011;18289;51.330;4.946;2022-08-20T01:56:21;21.73;;;15.35;;
31694;SDS011;18289;51.330;4.946;2022-08-20T01:58:50;26.98;;;14.60;;
31694;SDS011;18289;51.330;4.946;2022-08-20T02:01:23;22.75;;;14.40;;
31694;SDS011;18289;51.330;4.946;2022-08-20T02:03:58;27.25;;;15.68;;
31694;SDS011;18289;51.330;4.946;2022-08-20T02:06:26;29.25;;;17.10;;
31694;SDS011;18289;51.330;4.946;2022-08-20T02:08:55;31.75;;;17.90;;
31694;SDS011;18289;51.330;4.946;2022-08-20T02:11:26;31.38;;;16.75;;
31694;SDS011;18289;51.330;4.946;2022-08-20T02:13:53;33.90;;;17.98;;
31694;SDS011;18289;51.330;4.946;2022-08-20T02:16:25;27.05;;;17.52;;
31694;SDS011;18289;51.330;4.946;2022-08-20T02:18:59;29.00;;;17.27;;
31694;SDS011;18289;51.330;4.946;2022-08-20T02:21:34;29.17;;;17.65;;
31694;SDS011;18289;51.330;4.946;2022-08-20T02:24:02;29.33;;;18.67;;
31694;SDS011;18289;51.330;4.946;2022-08-20T02:26:29;27.95;;;17.13;;
31694;SDS011;18289;51.330;4.946;2022-08-20T02:28:55;28.83;;;16.77;;
31694;SDS011;18289;51.330;4.946;2022-08-20T02:31:21;25.83;;;16.10;;
31694;SDS011;18289;51.330;4.946;2022-08-20T02:33:48;27.42;;;16.70;;
31694;SDS011;18289;51.330;4.946;2022-08-20T02:36:14;28.35;;;16.00;;
31694;SDS011;18289;51.330;4.946;2022-08-20T02:38:42;29.13;;;15.80;;
31694;SDS011;18289;51.330;4.946;2022-08-20T02:41:08;28.88;;;17.17;;
31694;SDS011;18289;51.330;4.946;2022-08-20T02:43:35;23.40;;;14.90;;
31694;SDS011;18289;51.330;4.946;2022-08-20T02:46:01;27.00;;;15.70;;
31694;SDS011;18289;51.330;4.946;2022-08-20T02:48:29;29.17;;;15.27;;
31694;SDS011;18289;51.330;4.946;2022-08-20T02:50:56;26.67;;;15.32;;
31694;SDS011;18289;51.330;4.946;2022-08-20T02:53:28;25.15;;;14.25;;
31694;SDS011;18289;51.330;4.946;2022-08-20T02:55:57;24.17;;;13.38;;
31694;SDS011;18289;51.330;4.946;2022-08-20T02:58:24;22.88;;;14.80;;
31694;SDS011;18289;51.330;4.946;2022-08-20T03:00:50;24.00;;;13.38;;
31694;SDS011;18289;51.330;4.946;2022-08-20T03:03:17;22.90;;;13.68;;
31694;SDS011;18289;51.330;4.946;2022-08-20T03:05:46;26.15;;;15.38;;
31694;SDS011;18289;51.330;4.946;2022-08-20T03:08:14;23.52;;;14.80;;
31694;SDS011;18289;51.330;4.946;2022-08-20T03:10:41;24.05;;;15.07;;
31694;SDS011;18289;51.330;4.946;2022-08-20T03:13:09;25.75;;;15.65;;
31694;SDS011;18289;51.330;4.946;2022-08-20T03:15:36;28.27;;;16.42;;
31694;SDS011;18289;51.330;4.946;2022-08-20T03:18:07;30.17;;;16.17;;
31694;SDS011;18289;51.330;4.946;2022-08-20T03:20:33;30.10;;;16.10;;
31694;SDS011;18289;51.330;4.946;2022-08-20T03:23:00;27.65;;;16.08;;
31694;SDS011;18289;51.330;4.946;2022-08-20T03:25:25;26.30;;;15.88;;
31694;SDS011;18289;51.330;4.946;2022-08-20T03:27:51;23.02;;;14.73;;
31694;SDS011;18289;51.330;4.946;2022-08-20T03:30:18;29.67;;;14.95;;
31694;SDS011;18289;51.330;4.946;2022-08-20T03:32:43;26.05;;;15.43;;
31694;SDS011;18289;51.330;4.946;2022-08-20T03:35:10;23.17;;;14.18;;
31694;SDS011;18289;51.330;4.946;2022-08-20T03:37:38;25.13;;;14.52;;
31694;SDS011;18289;51.330;4.946;2022-08-20T03:40:07;24.65;;;14.25;;
31694;SDS011;18289;51.330;4.946;2022-08-20T03:42:35;26.92;;;13.07;;
31694;SDS011;18289;51.330;4.946;2022-08-20T03:45:02;22.42;;;13.68;;
31694;SDS011;18289;51.330;4.946;2022-08-20T03:47:28;23.67;;;12.63;;
31694;SDS011;18289;51.330;4.946;2022-08-20T03:50:00;28.80;;;13.93;;
31694;SDS011;18289;51.330;4.946;2022-08-20T03:52:28;25.08;;;13.48;;
31694;SDS011;18289;51.330;4.946;2022-08-20T03:54:54;26.73;;;12.38;;
31694;SDS011;18289;51.330;4.946;2022-08-20T03:57:20;28.45;;;12.13;;
31694;SDS011;18289;51.330;4.946;2022-08-20T03:59:46;24.48;;;12.60;;
31694;SDS011;18289;51.330;4.946;2022-08-20T04:02:12;27.48;;;13.23;;
31694;SDS011;18289;51.330;4.946;2022-08-20T04:04:38;21.95;;;12.75;;
31694;SDS011;18289;51.330;4.946;2022-08-20T04:07:18;24.27;;;11.98;;
31694;SDS011;18289;51.330;4.946;2022-08-20T04:09:50;24.55;;;13.18;;
31694;SDS011;18289;51.330;4.946;2022-08-20T04:12:17;27.60;;;12.60;;
31694;SDS011;18289;51.330;4.946;2022-08-20T04:14:43;28.30;;;12.60;;
31694;SDS011;18289;51.330;4.946;2022-08-20T04:17:09;29.23;;;12.88;;
31694;SDS011;18289;51.330;4.946;2022-08-20T04:19:36;21.85;;;11.38;;
31694;SDS011;18289;51.330;4.946;2022-08-20T04:22:03;26.60;;;12.60;;
31694;SDS011;18289;51.330;4.946;2022-08-20T04:24:30;22.17;;;11.75;;
31694;SDS011;18289;51.330;4.946;2022-08-20T04:26:56;22.25;;;12.10;;
31694;SDS011;18289;51.330;4.946;2022-08-20T04:29:23;25.75;;;11.38;;
31694;SDS011;18289;51.330;4.946;2022-08-20T04:31:49;22.38;;;12.25;;
31694;SDS011;18289;51.330;4.946;2022-08-20T04:34:16;20.30;;;11.43;;
31694;SDS011;18289;51.330;4.946;2022-08-20T04:36:43;19.45;;;10.60;;
31694;SDS011;18289;51.330;4.946;2022-08-20T04:39:12;21.05;;;10.45;;
31694;SDS011;18289;51.330;4.946;2022-08-20T04:41:38;28.20;;;12.13;;
31694;SDS011;18289;51.330;4.946;2022-08-20T04:44:04;28.00;;;12.70;;
31694;SDS011;18289;51.330;4.946;2022-08-20T04:46:30;27.52;;;11.48;;
31694;SDS011;18289;51.330;4.946;2022-08-20T04:48:56;25.77;;;11.95;;
31694;SDS011;18289;51.330;4.946;2022-08-20T04:51:22;17.88;;;10.07;;
31694;SDS011;18289;51.330;4.946;2022-08-20T04:53:49;24.23;;;11.75;;
31694;SDS011;18289;51.330;4.946;2022-08-20T04:56:16;24.92;;;11.50;;
31694;SDS011;18289;51.330;4.946;2022-08-20T04:58:47;27.63;;;10.68;;
31694;SDS011;18289;51.330;4.946;2022-08-20T05:01:17;29.08;;;12.07;;
31694;SDS011;18289;51.330;4.946;2022-08-20T05:03:42;23.00;;;10.63;;
31694;SDS011;18289;51.330;4.946;2022-08-20T05:06:10;22.02;;;11.50;;
31694;SDS011;18289;51.330;4.946;2022-08-20T05:08:36;23.95;;;12.00;;
31694;SDS011;18289;51.330;4.946;2022-08-20T05:11:03;23.75;;;11.75;;
31694;SDS011;18289;51.330;4.946;2022-08-20T05:13:30;24.25;;;11.52;;
31694;SDS011;18289;51.330;4.946;2022-08-20T05:15:55;22.83;;;12.73;;
31694;SDS011;18289;51.330;4.946;2022-08-20T05:18:25;26.70;;;13.20;;
31694;SDS011;18289;51.330;4.946;2022-08-20T05:20:51;26.52;;;12.70;;
31694;SDS011;18289;51.330;4.946;2022-08-20T05:23:18;26.67;;;13.43;;
31694;SDS011;18289;51.330;4.946;2022-08-20T05:25:46;25.92;;;12.57;;
31694;SDS011;18289;51.330;4.946;2022-08-20T05:28:20;26.48;;;13.18;;
31694;SDS011;18289;51.330;4.946;2022-08-20T05:30:49;22.98;;;12.27;;
31694;SDS011;18289;51.330;4.946;2022-08-20T05:33:16;20.48;;;11.38;;
31694;SDS011;18289;51.330;4.946;2022-08-20T05:35:44;25.30;;;12.93;;
31694;SDS011;18289;51.330;4.946;2022-08-20T05:38:12;27.15;;;12.07;;
31694;SDS011;18289;51.330;4.946;2022-08-20T05:40:39;22.23;;;11.27;;
31694;SDS011;18289;51.330;4.946;2022-08-20T05:43:06;24.83;;;12.75;;
31694;SDS011;18289;51.330;4.946;2022-08-20T05:45:33;23.13;;;12.85;;
31694;SDS011;18289;51.330;4.946;2022-08-20T05:48:06;23.40;;;13.35;;
31694;SDS011;18289;51.330;4.946;2022-08-20T05:50:35;22.63;;;12.70;;
31694;SDS011;18289;51.330;4.946;2022-08-20T05:53:01;29.70;;;13.30;;
31694;SDS011;18289;51.330;4.946;2022-08-20T05:55:27;24.67;;;13.57;;
31694;SDS011;18289;51.330;4.946;2022-08-20T05:57:57;27.67;;;13.43;;
31694;SDS011;18289;51.330;4.946;2022-08-20T06:00:27;22.02;;;13.57;;
31694;SDS011;18289;51.330;4.946;2022-08-20T06:02:53;31.60;;;13.93;;
31694;SDS011;18289;51.330;4.946;2022-08-20T06:05:38;26.67;;;15.82;;
31694;SDS011;18289;51.330;4.946;2022-08-20T06:08:05;21.92;;;13.70;;
31694;SDS011;18289;51.330;4.946;2022-08-20T06:10:33;23.67;;;15.25;;
31694;SDS011;18289;51.330;4.946;2022-08-20T06:13:00;32.35;;;16.70;;
31694;SDS011;18289;51.330;4.946;2022-08-20T06:15:27;27.30;;;15.20;;
31694;SDS011;18289;51.330;4.946;2022-08-20T06:17:53;31.00;;;15.90;;
31694;SDS011;18289;51.330;4.946;2022-08-20T06:20:19;27.35;;;15.85;;
31694;SDS011;18289;51.330;4.946;2022-08-20T06:22:45;31.25;;;16.50;;
31694;SDS011;18289;51.330;4.946;2022-08-20T06:25:11;33.75;;;16.50;;
31694;SDS011;18289;51.330;4.946;2022-08-20T06:27:37;28.60;;;15.63;;
31694;SDS011;18289;51.330;4.946;2022-08-20T06:30:05;32.35;;;18.10;;
31694;SDS011;18289;51.330;4.946;2022-08-20T06:32:32;35.30;;;19.05;;
31694;SDS011;18289;51.330;4.946;2022-08-20T06:34:58;30.08;;;15.13;;
31694;SDS011;18289;51.330;4.946;2022-08-20T06:37:29;30.25;;;16.67;;
31694;SDS011;18289;51.330;4.946;2022-08-20T06:40:00;35.63;;;17.88;;
31694;SDS011;18289;51.330;4.946;2022-08-20T06:42:30;24.25;;;15.65;;
31694;SDS011;18289;51.330;4.946;2022-08-20T06:44:55;28.75;;;18.38;;
31694;SDS011;18289;51.330;4.946;2022-08-20T06:47:23;30.02;;;17.25;;
31694;SDS011;18289;51.330;4.946;2022-08-20T06:49:49;22.02;;;15.13;;
31694;SDS011;18289;51.330;4.946;2022-08-20T06:52:15;23.92;;;14.10;;
31694;SDS011;18289;51.330;4.946;2022-08-20T06:54:41;25.40;;;16.10;;
31694;SDS011;18289;51.330;4.946;2022-08-20T06:57:08;31.25;;;18.15;;
31694;SDS011;18289;51.330;4.946;2022-08-20T06:59:34;32.63;;;20.05;;
31694;SDS011;18289;51.330;4.946;2022-08-20T07:02:00;24.35;;;16.42;;
31694;SDS011;18289;51.330;4.946;2022-08-20T07:04:26;31.65;;;18.90;;
31694;SDS011;18289;51.330;4.946;2022-08-20T07:06:53;32.10;;;21.67;;
31694;SDS011;18289;51.330;4.946;2022-08-20T07:09:21;35.77;;;23.63;;
31694;SDS011;18289;51.330;4.946;2022-08-20T07:11:48;31.13;;;23.20;;
31694;SDS011;18289;51.330;4.946;2022-08-20T07:14:14;36.03;;;21.88;;
31694;SDS011;18289;51.330;4.946;2022-08-20T07:16:40;35.25;;;23.20;;
31694;SDS011;18289;51.330;4.946;2022-08-20T07:19:07;35.13;;;22.35;;
31694;SDS011;18289;51.330;4.946;2022-08-20T07:21:33;30.05;;;22.75;;
31694;SDS011;18289;51.330;4.946;2022-08-20T07:23:59;29.33;;;21.25;;
31694;SDS011;18289;51.330;4.946;2022-08-20T07:26:25;36.67;;;23.42;;
31694;SDS011;18289;51.330;4.946;2022-08-20T07:28:51;35.85;;;23.30;;
31694;SDS011;18289;51.330;4.946;2022-08-20T07:31:16;32.45;;;23.05;;
31694;SDS011;18289;51.330;4.946;2022-08-20T07:34:01;38.35;;;23.35;;
31694;SDS011;18289;51.330;4.946;2022-08-20T07:36:27;32.38;;;23.85;;
31694;SDS011;18289;51.330;4.946;2022-08-20T07:38:53;33.10;;;23.90;;
31694;SDS011;18289;51.330;4.946;2022-08-20T07:41:19;44.33;;;27.48;;
31694;SDS011;18289;51.330;4.946;2022-08-20T07:43:45;36.05;;;25.25;;
31694;SDS011;18289;51.330;4.946;2022-08-20T07:46:12;34.83;;;24.25;;
31694;SDS011;18289;51.330;4.946;2022-08-20T07:48:40;32.63;;;24.35;;
31694;SDS011;18289;51.330;4.946;2022-08-20T07:51:14;34.53;;;23.10;;
31694;SDS011;18289;51.330;4.946;2022-08-20T07:53:42;37.50;;;25.17;;
31694;SDS011;18289;51.330;4.946;2022-08-20T07:56:11;34.20;;;25.35;;
31694;SDS011;18289;51.330;4.946;2022-08-20T07:58:43;34.25;;;24.85;;
31694;SDS011;18289;51.330;4.946;2022-08-20T08:01:18;36.08;;;25.48;;
31694;SDS011;18289;51.330;4.946;2022-08-20T08:03:46;34.08;;;23.10;;
31694;SDS011;18289;51.330;4.946;2022-08-20T08:06:11;35.33;;;24.05;;
31694;SDS011;18289;51.330;4.946;2022-08-20T08:08:37;25.65;;;19.13;;
31694;SDS011;18289;51.330;4.946;2022-08-20T08:11:04;36.47;;;23.67;;
31694;SDS011;18289;51.330;4.946;2022-08-20T08:13:36;34.05;;;24.13;;
31694;SDS011;18289;51.330;4.946;2022-08-20T08:16:04;32.63;;;23.13;;
31694;SDS011;18289;51.330;4.946;2022-08-20T08:18:36;32.28;;;23.20;;
31694;SDS011;18289;51.330;4.946;2022-08-20T08:21:10;28.25;;;22.05;;
31694;SDS011;18289;51.330;4.946;2022-08-20T08:23:37;35.83;;;24.73;;
31694;SDS011;18289;51.330;4.946;2022-08-20T08:26:09;31.30;;;23.83;;
31694;SDS011;18289;51.330;4.946;2022-08-20T08:28:36;27.73;;;21.98;;
31694;SDS011;18289;51.330;4.946;2022-08-20T08:31:03;31.08;;;22.23;;
31694;SDS011;18289;51.330;4.946;2022-08-20T08:33:32;32.23;;;25.33;;
31694;SDS011;18289;51.330;4.946;2022-08-20T08:35:59;33.05;;;23.17;;
31694;SDS011;18289;51.330;4.946;2022-08-20T08:38:30;31.85;;;23.85;;
31694;SDS011;18289;51.330;4.946;2022-08-20T08:41:03;28.85;;;23.02;;
31694;SDS011;18289;51.330;4.946;2022-08-20T08:43:41;26.73;;;22.13;;
31694;SDS011;18289;51.330;4.946;2022-08-20T08:46:11;26.75;;;22.60;;
31694;SDS011;18289;51.330;4.946;2022-08-20T08:48:40;31.92;;;23.80;;
31694;SDS011;18289;51.330;4.946;2022-08-20T08:51:10;27.88;;;21.45;;
31694;SDS011;18289;51.330;4.946;2022-08-20T08:53:40;30.35;;;24.30;;
31694;SDS011;18289;51.330;4.946;2022-08-20T08:56:10;27.05;;;23.08;;
31694;SDS011;18289;51.330;4.946;2022-08-20T08:58:38;30.70;;;22.92;;
31694;SDS011;18289;51.330;4.946;2022-08-20T09:01:09;35.17;;;23.08;;
31694;SDS011;18289;51.330;4.946;2022-08-20T09:03:37;28.63;;;21.17;;
31694;SDS011;18289;51.330;4.946;2022-08-20T09:06:07;25.02;;;20.65;;
31694;SDS011;18289;51.330;4.946;2022-08-20T09:08:37;26.40;;;21.57;;
31694;SDS011;18289;51.330;4.946;2022-08-20T09:11:12;27.13;;;21.80;;
31694;SDS011;18289;51.330;4.946;2022-08-20T09:13:38;28.85;;;21.73;;
31694;SDS011;18289;51.330;4.946;2022-08-20T09:16:04;29.30;;;22.45;;
31694;SDS011;18289;51.330;4.946;2022-08-20T09:18:30;29.77;;;21.40;;
31694;SDS011;18289;51.330;4.946;2022-08-20T09:20:56;26.80;;;21.15;;
31694;SDS011;18289;51.330;4.946;2022-08-20T09:23:22;29.75;;;20.88;;
31694;SDS011;18289;51.330;4.946;2022-08-20T09:25:47;23.80;;;19.23;;
31694;SDS011;18289;51.330;4.946;2022-08-20T09:28:13;28.25;;;19.65;;
31694;SDS011;18289;51.330;4.946;2022-08-20T09:30:39;26.63;;;19.83;;
31694;SDS011;18289;51.330;4.946;2022-08-20T09:33:05;23.08;;;19.10;;
31694;SDS011;18289;51.330;4.946;2022-08-20T09:35:30;24.33;;;18.85;;
31694;SDS011;18289;51.330;4.946;2022-08-20T09:37:56;21.67;;;18.08;;
31694;SDS011;18289;51.330;4.946;2022-08-20T09:40:22;25.15;;;18.63;;
31694;SDS011;18289;51.330;4.946;2022-08-20T09:42:48;26.45;;;20.15;;
31694;SDS011;18289;51.330;4.946;2022-08-20T09:45:14;23.48;;;18.13;;
31694;SDS011;18289;51.330;4.946;2022-08-20T09:47:40;23.08;;;17.67;;
31694;SDS011;18289;51.330;4.946;2022-08-20T09:50:06;25.35;;;17.73;;
31694;SDS011;18289;51.330;4.946;2022-08-20T09:52:34;20.85;;;15.27;;
31694;SDS011;18289;51.330;4.946;2022-08-20T09:55:04;19.25;;;14.85;;
31694;SDS011;18289;51.330;4.946;2022-08-20T09:57:40;17.13;;;12.57;;
31694;SDS011;18289;51.330;4.946;2022-08-20T10:00:07;18.13;;;12.50;;
31694;SDS011;18289;51.330;4.946;2022-08-20T10:02:34;14.90;;;11.55;;
31694;SDS011;18289;51.330;4.946;2022-08-20T10:05:00;14.52;;;10.32;;
31694;SDS011;18289;51.330;4.946;2022-08-20T10:07:25;17.48;;;12.05;;
31694;SDS011;18289;51.330;4.946;2022-08-20T10:09:51;12.35;;;9.60;;
31694;SDS011;18289;51.330;4.946;2022-08-20T10:12:17;10.05;;;9.05;;
31694;SDS011;18289;51.330;4.946;2022-08-20T10:14:42;12.02;;;9.93;;
31694;SDS011;18289;51.330;4.946;2022-08-20T10:17:08;11.50;;;9.75;;
31694;SDS011;18289;51.330;4.946;2022-08-20T10:19:34;11.48;;;10.35;;
31694;SDS011;18289;51.330;4.946;2022-08-20T10:22:00;13.02;;;9.52;;
31694;SDS011;18289;51.330;4.946;2022-08-20T10:24:26;10.20;;;7.75;;
31694;SDS011;18289;51.330;4.946;2022-08-20T10:26:56;10.40;;;7.25;;
31694;SDS011;18289;51.330;4.946;2022-08-20T10:29:24;12.02;;;6.18;;
31694;SDS011;18289;51.330;4.946;2022-08-20T10:31:51;11.18;;;4.88;;
31694;SDS011;18289;51.330;4.946;2022-08-20T10:34:17;10.00;;;4.57;;
31694;SDS011;18289;51.330;4.946;2022-08-20T10:36:43;9.75;;;4.50;;
31694;SDS011;18289;51.330;4.946;2022-08-20T10:39:09;10.02;;;4.70;;
31694;SDS011;18289;51.330;4.946;2022-08-20T10:41:35;9.05;;;4.63;;
31694;SDS011;18289;51.330;4.946;2022-08-20T10:44:01;9.07;;;4.60;;
31694;SDS011;18289;51.330;4.946;2022-08-20T10:46:27;8.32;;;4.30;;
31694;SDS011;18289;51.330;4.946;2022-08-20T10:48:53;6.13;;;3.38;;
31694;SDS011;18289;51.330;4.946;2022-08-20T10:51:19;6.80;;;3.72;;
31694;SDS011;18289;51.330;4.946;2022-08-20T10:53:45;6.15;;;3.22;;
31694;SDS011;18289;51.330;4.946;2022-08-20T10:56:11;10.75;;;3.75;;
31694;SDS011;18289;51.330;4.946;2022-08-20T10:58:37;7.95;;;3.70;;
31694;SDS011;18289;51.330;4.946;2022-08-20T11:01:03;6.97;;;3.67;;
31694;SDS011;18289;51.330;4.946;2022-08-20T11:03:29;7.43;;;3.90;;
31694;SDS011;18289;51.330;4.946;2022-08-20T11:05:55;9.30;;;3.85;;
31694;SDS011;18289;51.330;4.946;2022-08-20T11:08:21;7.70;;;3.30;;
31694;SDS011;18289;51.330;4.946;2022-08-20T11:10:47;6.60;;;3.20;;
31694;SDS011;18289;51.330;4.946;2022-08-20T11:13:12;6.15;;;3.33;;
31694;SDS011;18289;51.330;4.946;2022-08-20T11:15:39;8.05;;;3.63;;
31694;SDS011;18289;51.330;4.946;2022-08-20T11:18:06;8.02;;;3.38;;
31694;SDS011;18289;51.330;4.946;2022-08-20T11:20:32;6.28;;;3.50;;
31694;SDS011;18289;51.330;4.946;2022-08-20T11:22:59;10.00;;;4.20;;
31694;SDS011;18289;51.330;4.946;2022-08-20T11:25:24;6.55;;;3.67;;
31694;SDS011;18289;51.330;4.946;2022-08-20T11:27:51;9.30;;;4.22;;
31694;SDS011;18289;51.330;4.946;2022-08-20T11:30:20;9.70;;;3.65;;
31694;SDS011;18289;51.330;4.946;2022-08-20T11:32:48;8.52;;;4.13;;
31694;SDS011;18289;51.330;4.946;2022-08-20T11:35:15;5.90;;;4.20;;
31694;SDS011;18289;51.330;4.946;2022-08-20T11:37:41;8.00;;;3.72;;
31694;SDS011;18289;51.330;4.946;2022-08-20T11:40:07;7.75;;;3.80;;
31694;SDS011;18289;51.330;4.946;2022-08-20T11:42:35;7.72;;;3.80;;
31694;SDS011;18289;51.330;4.946;2022-08-20T11:45:02;8.52;;;3.83;;
31694;SDS011;18289;51.330;4.946;2022-08-20T11:47:28;8.05;;;3.80;;
31694;SDS011;18289;51.330;4.946;2022-08-20T11:49:55;8.02;;;3.55;;
31694;SDS011;18289;51.330;4.946;2022-08-20T11:52:23;8.82;;;3.85;;
31694;SDS011;18289;51.330;4.946;2022-08-20T11:54:49;8.00;;;3.33;;
31694;SDS011;18289;51.330;4.946;2022-08-20T11:57:19;7.20;;;3.05;;
31694;SDS011;18289;51.330;4.946;2022-08-20T11:59:49;10.43;;;3.05;;
31694;SDS011;18289;51.330;4.946;2022-08-20T12:02:16;11.27;;;3.53;;
31694;SDS011;18289;51.330;4.946;2022-08-20T12:04:42;7.25;;;3.35;;
31694;SDS011;18289;51.330;4.946;2022-08-20T12:07:08;7.22;;;3.00;;
31694;SDS011;18289;51.330;4.946;2022-08-20T12:09:39;8.13;;;3.22;;
31694;SDS011;18289;51.330;4.946;2022-08-20T12:12:05;6.95;;;4.07;;
31694;SDS011;18289;51.330;4.946;2022-08-20T12:14:31;6.72;;;3.20;;
31694;SDS011;18289;51.330;4.946;2022-08-20T12:16:57;7.43;;;4.10;;
31694;SDS011;18289;51.330;4.946;2022-08-20T12:19:31;9.18;;;3.75;;
31694;SDS011;18289;51.330;4.946;2022-08-20T12:21:57;5.90;;;3.80;;
31694;SDS011;18289;51.330;4.946;2022-08-20T12:24:22;8.15;;;4.40;;
31694;SDS011;18289;51.330;4.946;2022-08-20T12:26:48;10.60;;;4.05;;
31694;SDS011;18289;51.330;4.946;2022-08-20T12:29:14;6.35;;;3.65;;
31694;SDS011;18289;51.330;4.946;2022-08-20T12:31:39;7.57;;;4.63;;
31694;SDS011;18289;51.330;4.946;2022-08-20T12:34:05;9.35;;;4.03;;
31694;SDS011;18289;51.330;4.946;2022-08-20T12:36:31;7.93;;;4.07;;
31694;SDS011;18289;51.330;4.946;2022-08-20T12:38:56;7.68;;;4.22;;
31694;SDS011;18289;51.330;4.946;2022-08-20T12:41:22;9.48;;;4.97;;
31694;SDS011;18289;51.330;4.946;2022-08-20T12:43:48;9.57;;;4.47;;
31694;SDS011;18289;51.330;4.946;2022-08-20T12:46:13;6.00;;;4.68;;
31694;SDS011;18289;51.330;4.946;2022-08-20T12:48:39;11.00;;;4.20;;
31694;SDS011;18289;51.330;4.946;2022-08-20T12:51:05;6.85;;;4.47;;
31694;SDS011;18289;51.330;4.946;2022-08-20T12:53:30;7.90;;;4.03;;
31694;SDS011;18289;51.330;4.946;2022-08-20T12:55:56;7.10;;;4.13;;
31694;SDS011;18289;51.330;4.946;2022-08-20T12:58:22;7.70;;;3.78;;
31694;SDS011;18289;51.330;4.946;2022-08-20T13:00:47;9.95;;;4.47;;
31694;SDS011;18289;51.330;4.946;2022-08-20T13:03:13;9.27;;;3.92;;
31694;SDS011;18289;51.330;4.946;2022-08-20T13:05:39;6.97;;;4.30;;
31694;SDS011;18289;51.330;4.946;2022-08-20T13:08:06;7.50;;;4.15;;
31694;SDS011;18289;51.330;4.946;2022-08-20T13:10:35;8.60;;;3.80;;
31694;SDS011;18289;51.330;4.946;2022-08-20T13:13:02;8.65;;;3.92;;
31694;SDS011;18289;51.330;4.946;2022-08-20T13:15:28;9.85;;;5.45;;
31694;SDS011;18289;51.330;4.946;2022-08-20T13:17:56;7.75;;;3.88;;
31694;SDS011;18289;51.330;4.946;2022-08-20T13:20:24;7.75;;;3.67;;
31694;SDS011;18289;51.330;4.946;2022-08-20T13:22:54;7.35;;;4.03;;
31694;SDS011;18289;51.330;4.946;2022-08-20T13:25:20;5.25;;;3.53;;
31694;SDS011;18289;51.330;4.946;2022-08-20T13:27:46;7.60;;;4.07;;
31694;SDS011;18289;51.330;4.946;2022-08-20T13:30:14;8.63;;;4.28;;
31694;SDS011;18289;51.330;4.946;2022-08-20T13:32:42;6.10;;;3.67;;
31694;SDS011;18289;51.330;4.946;2022-08-20T13:35:09;7.25;;;4.05;;
31694;SDS011;18289;51.330;4.946;2022-08-20T13:37:36;7.50;;;3.88;;
31694;SDS011;18289;51.330;4.946;2022-08-20T13:40:03;7.72;;;4.32;;
31694;SDS011;18289;51.330;4.946;2022-08-20T13:42:30;6.38;;;4.18;;
31694;SDS011;18289;51.330;4.946;2022-08-20T13:44:56;7.45;;;3.78;;
31694;SDS011;18289;51.330;4.946;2022-08-20T13:47:23;8.80;;;5.43;;
31694;SDS011;18289;51.330;4.946;2022-08-20T13:49:56;5.85;;;3.70;;
31694;SDS011;18289;51.330;4.946;2022-08-20T13:52:25;7.38;;;4.18;;
31694;SDS011;18289;51.330;4.946;2022-08-20T13:54:51;9.02;;;5.03;;
31694;SDS011;18289;51.330;4.946;2022-08-20T13:57:18;6.68;;;4.20;;
31694;SDS011;18289;51.330;4.946;2022-08-20T13:59:46;7.15;;;4.32;;
31694;SDS011;18289;51.330;4.946;2022-08-20T14:02:14;9.33;;;4.60;;
31694;SDS011;18289;51.330;4.946;2022-08-20T14:04:41;6.10;;;4.05;;
31694;SDS011;18289;51.330;4.946;2022-08-20T14:07:07;15.25;;;5.70;;
31694;SDS011;18289;51.330;4.946;2022-08-20T14:09:37;11.00;;;8.52;;
31694;SDS011;18289;51.330;4.946;2022-08-20T14:12:04;7.50;;;4.60;;
31694;SDS011;18289;51.330;4.946;2022-08-20T14:14:30;6.95;;;3.97;;
31694;SDS011;18289;51.330;4.946;2022-08-20T14:16:56;4.95;;;3.63;;
31694;SDS011;18289;51.330;4.946;2022-08-20T14:19:22;6.13;;;3.67;;
31694;SDS011;18289;51.330;4.946;2022-08-20T14:21:47;5.65;;;3.83;;
31694;SDS011;18289;51.330;4.946;2022-08-20T14:24:13;7.43;;;3.75;;
31694;SDS011;18289;51.330;4.946;2022-08-20T14:26:39;6.35;;;4.10;;
31694;SDS011;18289;51.330;4.946;2022-08-20T14:29:04;4.85;;;3.85;;
31694;SDS011;18289;51.330;4.946;2022-08-20T14:31:30;6.22;;;4.28;;
31694;SDS011;18289;51.330;4.946;2022-08-20T14:33:56;4.78;;;3.67;;
31694;SDS011;18289;51.330;4.946;2022-08-20T14:36:21;7.28;;;3.60;;
31694;SDS011;18289;51.330;4.946;2022-08-20T14:38:47;6.70;;;4.03;;